sensor_id;sensor_type;location;lat;lon;timestamp;pressure;altitude;pressure_sealevel;temperature;humidity
41230;BME280;26964;50.428;19.218;2023-01-16T10:00:45;1003.5;;;3.1;80.7
41230;BME280;26964;50.428;19.218;2023-01-16T10:05:49;1003.5;;;3.1;80.7
41230;BME280;26964;50.428;19.218;2023-01-16T10:16:37;1003.3;;;3.3;80.6
41230;BME280;26964;50.428;19.218;2023-01-16T10:25:48;1003.1;;;3.5;80.7
41230;BME280;26964;50.428;19.218;2023-01-16T10:30:49;1003.0;;;3.7;80.5
41230;BME280;26964;50.428;19.218;2023-01-16T10:35:46;1002.8;;;3.8;80.4
41230;BME280;26964;50.428;19.218;2023-01-16T10:40:46;1002.7;;;3.8;80.4
41230;BME280;26964;50.428;19.218;2023-01-16T10:45:45;1002.6;;;3.9;80.3
41230;BME280;26964;50.428;19.218;2023-01-16T10:55:46;1002.3;;;4.2;80.2
41230;BME280;26964;50.428;19.218;2023-01-16T11:00:48;1002.2;;;4.2;80.0
41230;BME280;26964;50.428;19.218;2023-01-16T11:05:43;1002.0;;;4.3;79.8
41230;BME280;26964;50.428;19.218;2023-01-16T11:10:46;1001.9;;;4.3;79.8
41230;BME280;26964;50.428;19.218;2023-01-16T11:20:44;1001.7;;;4.4;79.6
41230;BME280;26964;50.428;19.218;2023-01-16T11:25:45;1001.5;;;4.4;79.6
41230;BME280;26964;50.428;19.218;2023-01-16T11:30:45;1001.4;;;4.6;79.5
41230;BME280;26964;50.428;19.218;2023-01-16T11:40:45;1001.3;;;4.8;79.5
41230;BME280;26964;50.428;19.218;2023-01-16T11:45:44;1001.0;;;4.8;79.4
41230;BME280;26964;50.428;19.218;2023-01-16T11:50:47;1001.0;;;4.8;79.4
41230;BME280;26964;50.428;19.218;2023-01-16T12:05:50;1000.8;;;4.9;79.4
41230;BME280;26964;50.428;19.218;2023-01-16T12:10:47;1000.6;;;5.0;79.4
41230;BME280;26964;50.428;19.218;2023-01-16T12:16:15;1000.5;;;5.0;79.2
41230;BME280;26964;50.428;19.218;2023-01-16T12:20:54;1000.4;;;5.0;79.0
41230;BME280;26964;50.428;19.218;2023-01-16T12:25:52;1000.3;;;4.9;78.8
41230;BME280;26964;50.428;19.218;2023-01-16T12:35:54;1000.0;;;4.9;78.9
41230;BME280;26964;50.428;19.218;2023-01-16T12:45:51;999.9;;;4.8;78.6
41230;BME280;26964;50.428;19.218;2023-01-16T12:55:49;999.7;;;4.7;78.4
41230;BME280;26964;50.428;19.218;2023-01-16T13:00:48;999.6;;;4.7;78.5
41230;BME280;26964;50.428;19.218;2023-01-16T13:05:44;999.6;;;4.7;78.5
41230;BME280;26964;50.428;19.218;2023-01-16T13:10:46;999.4;;;4.7;78.5
41230;BME280;26964;50.428;19.218;2023-01-16T13:20:44;999.4;;;4.6;78.2
41230;BME280;26964;50.428;19.218;2023-01-16T13:25:46;999.3;;;4.5;78.2
41230;BME280;26964;50.428;19.218;2023-01-16T13:30:45;999.2;;;4.5;78.2
41230;BME280;26964;50.428;19.218;2023-01-16T13:35:48;998.9;;;4.5;78.2
41230;BME280;26964;50.428;19.218;2023-01-16T13:45:44;998.7;;;4.5;78.4
41230;BME280;26964;50.428;19.218;2023-01-16T13:50:52;998.6;;;4.5;78.4
41230;BME280;26964;50.428;19.218;2023-01-16T13:55:43;998.7;;;4.5;78.3
41230;BME280;26964;50.428;19.218;2023-01-16T14:00:58;998.4;;;4.5;78.4
41230;BME280;26964;50.428;19.218;2023-01-16T14:05:53;998.4;;;4.5;78.4
41230;BME280;26964;50.428;19.218;2023-01-16T14:10:44;998.4;;;4.4;78.3
41230;BME280;26964;50.428;19.218;2023-01-16T14:15:54;998.2;;;4.4;78.3
41230;BME280;26964;50.428;19.218;2023-01-16T14:25:44;998.1;;;4.3;78.3
41230;BME280;26964;50.428;19.218;2023-01-16T14:30:45;998.2;;;4.3;78.2
41230;BME280;26964;50.428;19.218;2023-01-16T14:36:03;998.1;;;4.2;78.2
41230;BME280;26964;50.428;19.218;2023-01-16T14:40:47;998.0;;;4.1;78.2
41230;BME280;26964;50.428;19.218;2023-01-16T14:55:48;997.7;;;3.7;78.2
41230;BME280;26964;50.428;19.218;2023-01-16T15:00:51;997.7;;;3.6;78.3
41230;BME280;26964;50.428;19.218;2023-01-16T15:05:51;997.7;;;3.5;78.3
41230;BME280;26964;50.428;19.218;2023-01-16T15:10:55;997.7;;;3.4;78.3
41230;BME280;26964;50.428;19.218;2023-01-16T15:15:48;997.6;;;3.3;78.3
41230;BME280;26964;50.428;19.218;2023-01-16T15:20:44;997.5;;;3.1;78.3
41230;BME280;26964;50.428;19.218;2023-01-16T15:30:44;997.4;;;2.7;78.4
41230;BME280;26964;50.428;19.218;2023-01-16T15:51:00;997.0;;;2.2;78.7
41230;BME280;26964;50.428;19.218;2023-01-16T16:00:59;996.8;;;2.0;78.9
41230;BME280;26964;50.428;19.218;2023-01-16T16:06:01;996.7;;;2.0;79.0
41230;BME280;26964;50.428;19.218;2023-01-16T16:11:21;996.5;;;2.0;79.0
41230;BME280;26964;50.428;19.218;2023-01-16T16:15:59;996.4;;;2.0;79.1
41230;BME280;26964;50.428;19.218;2023-01-16T16:21:20;996.3;;;2.0;79.0
41230;BME280;26964;50.428;19.218;2023-01-16T16:31:05;996.1;;;2.0;79.1
41230;BME280;26964;50.428;19.218;2023-01-16T17:41:23;994.8;;;2.2;79.6
41230;BME280;26964;50.428;19.218;2023-01-16T17:46:10;994.9;;;2.2;79.7
41230;BME280;26964;50.428;19.218;2023-01-16T17:51:19;994.7;;;2.2;79.7
41230;BME280;26964;50.428;19.218;2023-01-16T17:56:08;994.7;;;2.2;79.7
41230;BME280;26964;50.428;19.218;2023-01-16T18:01:10;994.6;;;2.3;79.8
41230;BME280;26964;50.428;19.218;2023-01-16T18:06:08;994.6;;;2.3;79.8
41230;BME280;26964;50.428;19.218;2023-01-16T18:11:09;994.5;;;2.3;79.8
41230;BME280;26964;50.428;19.218;2023-01-16T18:16:13;994.4;;;2.3;79.8
41230;BME280;26964;50.428;19.218;2023-01-16T18:21:11;994.4;;;2.3;79.8
41230;BME280;26964;50.428;19.218;2023-01-16T18:26:09;994.2;;;2.3;79.9
41230;BME280;26964;50.428;19.218;2023-01-16T18:31:09;994.3;;;2.4;79.9
41230;BME280;26964;50.428;19.218;2023-01-16T18:36:08;994.2;;;2.4;79.9
41230;BME280;26964;50.428;19.218;2023-01-16T18:41:12;994.2;;;2.4;79.9
41230;BME280;26964;50.428;19.218;2023-01-16T18:46:14;994.1;;;2.4;79.9
41230;BME280;26964;50.428;19.218;2023-01-16T18:51:10;994.0;;;2.4;79.9
41230;BME280;26964;50.428;19.218;2023-01-16T18:56:18;993.7;;;2.4;79.9
41230;BME280;26964;50.428;19.218;2023-01-16T19:01:11;993.7;;;2.4;80.0
41230;BME280;26964;50.428;19.218;2023-01-16T19:11:08;993.4;;;2.4;80.0
41230;BME280;26964;50.428;19.218;2023-01-16T19:16:09;993.2;;;2.4;80.0
41230;BME280;26964;50.428;19.218;2023-01-16T19:21:46;993.2;;;2.4;80.0
41230;BME280;26964;50.428;19.218;2023-01-16T19:26:08;993.1;;;2.4;80.1
41230;BME280;26964;50.428;19.218;2023-01-16T19:31:16;993.2;;;2.4;80.1
41230;BME280;26964;50.428;19.218;2023-01-16T19:36:08;993.0;;;2.4;80.1
41230;BME280;26964;50.428;19.218;2023-01-16T19:41:08;993.0;;;2.4;80.1
41230;BME280;26964;50.428;19.218;2023-01-16T19:46:24;992.8;;;2.4;80.1
41230;BME280;26964;50.428;19.218;2023-01-16T19:56:13;992.6;;;2.4;80.2
41230;BME280;26964;50.428;19.218;2023-01-16T20:01:18;992.6;;;2.5;80.2
41230;BME280;26964;50.428;19.218;2023-01-16T20:06:24;992.4;;;2.5;80.2
41230;BME280;26964;50.428;19.218;2023-01-16T20:16:22;992.4;;;2.5;80.3
41230;BME280;26964;50.428;19.218;2023-01-16T20:21:24;992.3;;;2.5;80.3
41230;BME280;26964;50.428;19.218;2023-01-16T20:26:18;992.2;;;2.5;80.3
41230;BME280;26964;50.428;19.218;2023-01-16T20:36:17;992.1;;;2.5;80.3
41230;BME280;26964;50.428;19.218;2023-01-16T20:41:25;992.1;;;2.5;80.4
41230;BME280;26964;50.428;19.218;2023-01-16T20:46:16;992.1;;;2.5;80.4
41230;BME280;26964;50.428;19.218;2023-01-16T21:11:23;991.8;;;2.6;80.5
41230;BME280;26964;50.428;19.218;2023-01-16T21:16:25;991.7;;;2.6;80.5
41230;BME280;26964;50.428;19.218;2023-01-16T21:21:18;991.7;;;2.6;80.5
41230;BME280;26964;50.428;19.218;2023-01-16T21:26:19;991.7;;;2.6;80.5
41230;BME280;26964;50.428;19.218;2023-01-16T21:31:23;991.7;;;2.6;80.5
41230;BME280;26964;50.428;19.218;2023-01-16T21:36:21;991.6;;;2.6;80.5
41230;BME280;26964;50.428;19.218;2023-01-16T21:51:34;991.6;;;2.5;80.5
41230;BME280;26964;50.428;19.218;2023-01-16T21:56:27;991.7;;;2.6;80.5
41230;BME280;26964;50.428;19.218;2023-01-16T22:01:22;991.7;;;2.5;80.5
41230;BME280;26964;50.428;19.218;2023-01-16T22:06:25;991.5;;;2.5;80.5
41230;BME280;26964;50.428;19.218;2023-01-16T22:11:25;991.5;;;2.5;80.5
41230;BME280;26964;50.428;19.218;2023-01-16T22:16:25;991.5;;;2.5;80.5
41230;BME280;26964;50.428;19.218;2023-01-16T22:21:30;991.4;;;2.5;80.5
41230;BME280;26964;50.428;19.218;2023-01-16T22:26:25;991.3;;;2.5;80.7
41230;BME280;26964;50.428;19.218;2023-01-16T22:31:24;991.3;;;2.5;80.6
41230;BME280;26964;50.428;19.218;2023-01-16T22:36:25;991.2;;;2.5;80.6
41230;BME280;26964;50.428;19.218;2023-01-16T22:41:25;991.2;;;2.5;80.7
41230;BME280;26964;50.428;19.218;2023-01-16T22:46:26;991.1;;;2.5;80.7
41230;BME280;26964;50.428;19.218;2023-01-16T22:51:27;991.1;;;2.6;80.7
41230;BME280;26964;50.428;19.218;2023-01-16T22:56:29;990.9;;;2.6;80.8
41230;BME280;26964;50.428;19.218;2023-01-16T23:01:26;991.0;;;2.6;80.8
41230;BME280;26964;50.428;19.218;2023-01-16T23:06:27;991.0;;;2.6;80.8
41230;BME280;26964;50.428;19.218;2023-01-16T23:11:28;991.0;;;2.6;80.9
41230;BME280;26964;50.428;19.218;2023-01-16T23:16:38;990.9;;;2.6;80.7
41230;BME280;26964;50.428;19.218;2023-01-16T23:21:26;990.8;;;2.6;80.8
41230;BME280;26964;50.428;19.218;2023-01-16T23:26:37;990.8;;;2.6;80.8
41230;BME280;26964;50.428;19.218;2023-01-16T23:31:27;990.7;;;2.7;80.8
41230;BME280;26964;50.428;19.218;2023-01-16T23:36:27;990.7;;;2.7;80.9
41230;BME280;26964;50.428;19.218;2023-01-16T23:41:27;990.6;;;2.7;80.8
